Time;durP1;ratioP1;P1;durP2;ratioP2;P2;SDS_P1;SDS_P2;PMS_P1;PMS_P2;Temp;Humidity;BMP_temperature;BMP_pressure;BME280_temperature;BME280_humidity;BME280_pressure;Samples;Min_cycle;Max_cycle;Signal;HPM_P1;HPM_P2
2022/02/23 00:01:54;;;;;;;2.55;0.65;;;;;;;6.69;100.00;99503.69;5118290;28;20044;-82
2022/02/23 01:31:48;;;;;;;2.22;0.75;;;;;;;4.96;100.00;99656.56;5106082;28;20065;-82
2022/02/23 01:34:15;;;;;;;6.88;1.40;;;;;;;5.01;100.00;99662.38;5111843;27;20047;-82
2022/02/23 01:36:41;;;;;;;8.13;1.00;;;;;;;4.90;100.00;99655.25;5105228;27;20432;-83
2022/02/23 01:39:07;;;;;;;3.00;0.82;;;;;;;4.92;100.00;99665.91;5111248;28;20052;-82
2022/02/23 01:41:34;;;;;;;4.22;0.73;;;;;;;4.95;100.00;99679.09;5110551;28;20775;-83
2022/02/23 01:44:03;;;;;;;3.92;1.17;;;;;;;4.87;100.00;99676.25;5110574;27;20517;-83
2022/02/23 01:46:30;;;;;;;1.13;0.60;;;;;;;4.78;100.00;99678.75;5109832;28;20052;-83
2022/02/23 01:49:00;;;;;;;1.63;0.80;;;;;;;4.86;100.00;99688.00;5116298;27;20043;-83
2022/02/23 01:51:28;;;;;;;2.05;0.70;;;;;;;4.68;100.00;99669.81;5112443;28;20135;-83
2022/02/23 01:53:55;;;;;;;3.38;0.93;;;;;;;4.70;100.00;99678.59;5113129;28;20449;-83
2022/02/23 01:56:21;;;;;;;4.88;1.52;;;;;;;4.75;100.00;99678.19;5114212;27;20062;-82
2022/02/23 01:58:48;;;;;;;3.95;0.63;;;;;;;4.81;100.00;99687.56;5113695;28;20528;-82
2022/02/23 02:01:14;;;;;;;7.13;1.90;;;;;;;4.75;100.00;99675.50;5113685;27;20059;-82
2022/02/23 02:03:41;;;;;;;2.17;0.80;;;;;;;4.89;100.00;99683.22;5112916;28;20054;-82
2022/02/23 02:06:10;;;;;;;1.65;0.80;;;;;;;4.85;100.00;99686.28;5113139;28;20201;-82
2022/02/23 02:08:36;;;;;;;7.15;0.95;;;;;;;4.87;100.00;99690.56;5113337;28;20052;-82
2022/02/23 02:11:03;;;;;;;7.43;0.95;;;;;;;4.98;100.00;99705.78;5112400;28;20414;-82
2022/02/23 02:13:30;;;;;;;5.68;0.98;;;;;;;5.00;100.00;99700.25;5118400;27;20596;-81
2022/02/23 02:15:57;;;;;;;4.00;0.88;;;;;;;5.00;100.00;99708.34;5113229;28;20048;-81
2022/02/23 02:18:23;;;;;;;3.10;0.77;;;;;;;4.99;100.00;99726.34;5113555;28;20487;-81
2022/02/23 02:20:50;;;;;;;3.97;0.90;;;;;;;4.96;100.00;99719.38;5113045;28;20043;-81
2022/02/23 02:23:18;;;;;;;6.13;1.13;;;;;;;4.90;100.00;99732.56;5117837;27;20040;-81
2022/02/23 02:25:45;;;;;;;3.40;0.95;;;;;;;4.90;100.00;99737.94;5112401;27;20071;-81
2022/02/23 02:28:12;;;;;;;6.13;1.70;;;;;;;4.83;100.00;99745.69;5112854;28;20051;-82
2022/02/23 02:30:38;;;;;;;6.93;1.48;;;;;;;4.68;100.00;99737.13;5113206;28;20197;-81
2022/02/23 02:33:05;;;;;;;7.70;1.25;;;;;;;4.73;100.00;99748.34;5112884;28;20074;-81
2022/02/23 02:35:36;;;;;;;3.65;1.30;;;;;;;4.71;100.00;99766.50;5109513;28;20043;-81
2022/02/23 02:38:02;;;;;;;7.28;2.17;;;;;;;4.57;100.00;99767.66;5113173;28;20130;-81
2022/02/23 02:40:30;;;;;;;3.03;1.17;;;;;;;4.51;100.00;99764.66;5111617;27;20047;-80
2022/02/23 02:42:57;;;;;;;8.40;2.13;;;;;;;4.46;100.00;99772.25;5112465;28;20047;-81
2022/02/23 02:45:25;;;;;;;8.18;1.23;;;;;;;4.51;100.00;99788.88;5119045;27;20044;-81
2022/02/23 02:47:52;;;;;;;6.50;1.23;;;;;;;4.46;100.00;99786.59;5112976;28;20067;-81
2022/02/23 02:50:18;;;;;;;4.20;1.02;;;;;;;4.43;100.00;99782.31;5121563;27;20052;-81
2022/02/23 02:52:45;;;;;;;9.35;1.50;;;;;;;4.51;100.00;99789.72;5112739;28;20047;-81
2022/02/23 02:55:11;;;;;;;7.38;1.15;;;;;;;4.52;100.00;99788.75;5111916;28;20525;-81
2022/02/23 02:57:39;;;;;;;5.80;1.10;;;;;;;4.54;100.00;99794.00;5105584;28;20501;-81
2022/02/23 03:00:07;;;;;;;4.88;1.27;;;;;;;4.56;100.00;99794.72;5112871;28;20063;-81
2022/02/23 03:02:34;;;;;;;4.25;0.95;;;;;;;4.49;100.00;99783.63;5112703;28;20039;-81
2022/02/23 03:05:00;;;;;;;11.65;1.20;;;;;;;4.59;100.00;99795.34;5102730;28;20052;-81
2022/02/23 03:07:27;;;;;;;10.93;1.38;;;;;;;4.56;100.00;99805.50;5115279;27;20144;-80
2022/02/23 03:09:53;;;;;;;2.22;0.80;;;;;;;4.59;100.00;99799.84;5112576;28;20050;-81
2022/02/23 03:12:20;;;;;;;4.10;0.80;;;;;;;4.50;100.00;99800.63;5112544;28;20430;-80
2022/02/23 03:14:48;;;;;;;7.57;1.17;;;;;;;4.50;100.00;99797.94;5112063;28;20122;-81
2022/02/23 03:17:14;;;;;;;3.47;0.80;;;;;;;4.52;100.00;99806.75;5112296;28;20058;-81
2022/02/23 03:19:41;;;;;;;4.90;1.35;;;;;;;4.37;100.00;99798.13;5112273;28;20051;-81
2022/02/23 03:22:07;;;;;;;4.25;1.10;;;;;;;4.33;100.00;99810.13;5111538;28;20075;-80
2022/02/23 03:24:34;;;;;;;8.40;1.00;;;;;;;4.29;100.00;99816.75;5109618;28;20058;-80
2022/02/23 03:27:00;;;;;;;4.60;1.30;;;;;;;4.24;100.00;99825.22;5112532;28;20044;-81
2022/02/23 03:29:27;;;;;;;5.82;1.42;;;;;;;4.22;100.00;99822.66;5112346;28;20090;-81
2022/02/23 03:31:55;;;;;;;6.70;1.92;;;;;;;4.25;100.00;99837.72;5114997;28;20775;-80
2022/02/23 03:34:22;;;;;;;9.95;2.13;;;;;;;4.15;100.00;99839.44;5129061;28;20052;-81
2022/02/23 03:36:48;;;;;;;7.43;2.17;;;;;;;4.11;100.00;99837.97;5112734;28;20043;-81
2022/02/23 03:39:15;;;;;;;3.80;1.00;;;;;;;4.17;100.00;99853.63;5114727;28;20414;-80
2022/02/23 03:41:41;;;;;;;5.50;1.55;;;;;;;4.08;100.00;99841.81;5114591;27;20049;-81
2022/02/23 03:44:08;;;;;;;4.55;1.60;;;;;;;4.01;100.00;99843.28;5114754;28;20052;-81
2022/02/23 03:46:34;;;;;;;6.45;1.48;;;;;;;3.93;100.00;99852.00;5116095;27;20043;-81
2022/02/23 03:49:02;;;;;;;6.75;1.30;;;;;;;3.73;100.00;99856.28;5117669;27;20051;-80
2022/02/23 03:51:29;;;;;;;10.43;1.30;;;;;;;3.69;100.00;99857.53;5119664;27;20050;-81
2022/02/23 03:53:55;;;;;;;5.72;1.40;;;;;;;3.61;100.00;99849.22;5127269;27;20055;-81
2022/02/23 03:56:40;;;;;;;3.60;1.20;;;;;;;3.59;100.00;99867.31;5115977;28;20054;-80
2022/02/23 03:59:08;;;;;;;3.25;0.95;;;;;;;3.64;100.00;99879.38;5107649;28;20039;-81
2022/02/23 04:01:35;;;;;;;6.57;1.33;;;;;;;3.63;100.00;99876.81;5125044;27;20138;-81
2022/02/23 04:04:04;;;;;;;6.57;2.45;;;;;;;3.70;100.00;99883.41;5117895;27;20048;-81
2022/02/23 04:06:31;;;;;;;4.32;1.27;;;;;;;3.73;100.00;99888.56;5126205;27;20073;-80
2022/02/23 04:08:58;;;;;;;8.95;1.67;;;;;;;3.72;100.00;99893.09;5115878;28;20039;-81
2022/02/23 04:11:25;;;;;;;6.07;1.13;;;;;;;3.65;100.00;99894.53;5116001;28;20086;-80
2022/02/23 04:13:51;;;;;;;8.60;1.35;;;;;;;3.68;100.00;99909.59;5114949;27;20437;-81
2022/02/23 04:16:18;;;;;;;3.45;1.00;;;;;;;3.55;100.00;99904.31;5118240;27;20475;-80
2022/02/23 04:18:45;;;;;;;6.07;1.13;;;;;;;3.44;100.00;99921.31;5112161;28;20047;-80
2022/02/23 04:21:13;;;;;;;3.78;1.25;;;;;;;3.36;100.00;99913.00;5115875;27;20097;-80
2022/02/23 04:23:40;;;;;;;8.60;1.30;;;;;;;3.42;100.00;99915.19;5115240;28;20048;-80
2022/02/23 04:26:06;;;;;;;6.43;1.52;;;;;;;3.45;100.00;99923.03;5115707;27;20048;-80
2022/02/23 04:28:34;;;;;;;5.60;1.45;;;;;;;3.32;100.00;99915.06;5116161;27;20055;-80
2022/02/23 04:31:01;;;;;;;3.85;0.88;;;;;;;3.32;100.00;99933.88;5114567;28;20043;-81
2022/02/23 04:33:27;;;;;;;6.00;1.25;;;;;;;3.26;100.00;99933.50;5114446;28;20048;-80
2022/02/23 04:35:54;;;;;;;8.57;1.75;;;;;;;3.06;100.00;99927.84;5118030;27;20055;-80
2022/02/23 04:38:22;;;;;;;3.42;0.77;;;;;;;3.02;100.00;99955.91;5115764;28;20510;-81
2022/02/23 04:40:48;;;;;;;5.47;2.42;;;;;;;2.87;100.00;99963.28;5114724;27;20052;-80
2022/02/23 04:43:16;;;;;;;2.38;1.25;;;;;;;2.87;100.00;99955.25;5111148;27;20052;-81
2022/02/23 04:45:43;;;;;;;7.85;1.13;;;;;;;2.86;100.00;99966.09;5115904;27;20050;-80
2022/02/23 04:48:09;;;;;;;3.08;1.05;;;;;;;2.66;100.00;99952.34;5114819;27;20055;-81
2022/02/23 04:50:36;;;;;;;5.00;1.67;;;;;;;2.75;100.00;99969.59;5119306;27;20066;-81
2022/02/23 04:53:02;;;;;;;9.25;1.80;;;;;;;2.62;100.00;99966.97;5114049;27;20437;-80
2022/02/23 04:55:30;;;;;;;1.33;0.80;;;;;;;2.46;100.00;99943.09;5114022;28;20097;-80
2022/02/23 04:57:57;;;;;;;2.38;0.80;;;;;;;2.46;100.00;99962.72;5115168;28;20047;-80
2022/02/23 05:00:23;;;;;;;3.28;1.02;;;;;;;2.55;100.00;99963.03;5116130;27;20044;-80
2022/02/23 05:02:50;;;;;;;5.82;1.17;;;;;;;2.48;100.00;99979.59;5111725;28;20043;-80
2022/02/23 05:05:16;;;;;;;7.07;1.20;;;;;;;2.30;100.00;99987.19;5112476;28;20043;-80
2022/02/23 05:07:42;;;;;;;3.28;1.52;;;;;;;2.09;100.00;99973.50;5114677;28;20066;-80
2022/02/23 05:10:11;;;;;;;10.02;1.27;;;;;;;2.10;100.00;99982.38;5114767;28;20495;-80
2022/02/23 05:12:39;;;;;;;7.27;1.83;;;;;;;2.13;100.00;99982.16;5119430;27;20042;-81
2022/02/23 05:15:06;;;;;;;4.53;1.00;;;;;;;2.16;100.00;99992.66;5127660;27;20051;-80
2022/02/23 05:17:33;;;;;;;4.78;0.98;;;;;;;2.07;100.00;99987.97;5114896;28;20040;-80
2022/02/23 05:19:59;;;;;;;6.50;1.10;;;;;;;2.15;100.00;99998.16;5114550;27;20402;-80
2022/02/23 05:22:26;;;;;;;2.72;1.08;;;;;;;1.92;100.00;99973.84;5113989;28;20040;-81
2022/02/23 05:24:52;;;;;;;5.35;1.10;;;;;;;1.87;100.00;99984.03;5127626;27;20051;-80
2022/02/23 05:27:19;;;;;;;4.05;0.90;;;;;;;1.83;100.00;99990.59;5116054;27;20054;-81
2022/02/23 05:29:46;;;;;;;2.78;1.30;;;;;;;1.82;100.00;99986.19;5131651;27;20047;-80
2022/02/23 05:32:13;;;;;;;8.02;1.25;;;;;;;1.96;100.00;99991.44;5114410;27;20063;-80
2022/02/23 05:34:39;;;;;;;7.72;1.55;;;;;;;1.92;100.00;99990.78;5112224;28;20134;-81
2022/02/23 05:37:06;;;;;;;3.30;1.20;;;;;;;1.95;100.00;100003.97;5114587;28;20054;-81
2022/02/23 05:39:32;;;;;;;2.70;1.17;;;;;;;1.87;100.00;100000.97;5114350;28;20050;-80
2022/02/23 05:41:59;;;;;;;2.63;0.98;;;;;;;1.84;100.00;100006.56;5109722;27;20063;-80
2022/02/23 05:44:25;;;;;;;5.32;1.50;;;;;;;1.66;100.00;100003.34;5111794;28;20415;-80
2022/02/23 05:46:53;;;;;;;4.82;1.30;;;;;;;1.87;100.00;100013.53;5113907;27;20044;-80
2022/02/23 05:49:19;;;;;;;3.10;1.10;;;;;;;1.85;100.00;100012.78;5114023;28;20044;-80
2022/02/23 05:51:48;;;;;;;12.45;1.52;;;;;;;1.72;100.00;100010.97;5112848;27;20059;-81
2022/02/23 05:54:15;;;;;;;5.20;1.45;;;;;;;1.83;100.00;100030.81;5109887;28;20051;-81
2022/02/23 05:56:42;;;;;;;4.93;1.80;;;;;;;1.85;100.00;100028.88;5113104;28;20054;-80
2022/02/23 05:59:09;;;;;;;15.07;1.60;;;;;;;1.95;100.00;100021.88;5116374;27;20120;-81
2022/02/23 06:01:36;;;;;;;5.20;1.42;;;;;;;2.05;100.00;100027.47;5111260;28;20113;-80
2022/02/23 06:04:05;;;;;;;11.30;2.60;;;;;;;2.10;100.00;100042.25;5113445;28;20051;-80
2022/02/23 06:06:31;;;;;;;6.47;1.80;;;;;;;2.10;100.00;100042.25;5113915;28;20134;-81
2022/02/23 06:08:58;;;;;;;7.32;1.40;;;;;;;2.00;100.00;100043.00;5113689;28;20048;-80
2022/02/23 06:11:25;;;;;;;4.35;1.60;;;;;;;2.06;100.00;100056.88;5112736;28;20043;-81
2022/02/23 06:13:51;;;;;;;3.60;1.40;;;;;;;2.06;100.00;100058.66;5112823;28;20057;-81
2022/02/23 06:16:19;;;;;;;7.75;2.05;;;;;;;2.00;100.00;100062.63;5113624;28;20056;-81
2022/02/23 06:18:46;;;;;;;7.05;2.08;;;;;;;2.14;100.00;100069.72;5113606;27;20074;-81
2022/02/23 06:21:13;;;;;;;12.82;2.22;;;;;;;2.00;100.00;100062.63;5111944;28;20051;-81
2022/02/23 06:23:40;;;;;;;9.05;1.92;;;;;;;2.12;100.00;100079.69;5111978;28;20517;-80
2022/02/23 06:26:06;;;;;;;5.82;1.80;;;;;;;2.22;100.00;100087.97;5120123;27;20050;-81
2022/02/23 06:28:33;;;;;;;18.77;5.22;;;;;;;2.26;100.00;100098.38;5108760;28;20043;-81
2022/02/23 06:31:00;;;;;;;11.73;4.40;;;;;;;2.24;100.00;100102.13;5122876;27;20055;-81
2022/02/23 06:33:26;;;;;;;13.07;4.40;;;;;;;2.29;100.00;100095.47;5112619;28;20051;-81
2022/02/23 06:35:54;;;;;;;14.70;4.68;;;;;;;2.37;100.00;100102.13;5112917;27;20127;-81
2022/02/23 06:38:22;;;;;;;6.40;3.92;;;;;;;2.38;100.00;100106.50;5113359;28;20054;-81
2022/02/23 06:40:50;;;;;;;12.20;3.83;;;;;;;2.39;100.00;100114.44;5114958;27;20051;-81
2022/02/23 06:43:17;;;;;;;6.57;3.72;;;;;;;2.46;100.00;100106.81;5124256;27;20402;-81
2022/02/23 06:45:45;;;;;;;8.43;3.58;;;;;;;2.47;100.00;100114.75;5115251;27;20680;-81
2022/02/23 06:48:12;;;;;;;5.78;2.45;;;;;;;2.52;100.00;100116.28;5112831;28;20095;-81
2022/02/23 06:50:39;;;;;;;10.48;2.83;;;;;;;2.58;100.00;100121.19;5112141;27;20039;-81
2022/02/23 06:53:06;;;;;;;13.77;2.92;;;;;;;2.65;100.00;100117.09;5110559;28;20048;-81
2022/02/23 06:55:35;;;;;;;9.18;4.03;;;;;;;2.69;100.00;100125.78;5112854;28;20047;-81
2022/02/23 06:58:01;;;;;;;10.07;3.17;;;;;;;2.67;100.00;100125.06;5109168;28;20070;-81
2022/02/23 07:00:28;;;;;;;11.38;3.25;;;;;;;2.67;100.00;100127.75;5119912;27;20130;-79
2022/02/23 07:02:55;;;;;;;8.65;3.17;;;;;;;2.67;100.00;100122.38;5106707;28;20134;-81
2022/02/23 07:05:22;;;;;;;23.83;11.52;;;;;;;2.79;100.00;100135.75;5110486;28;20138;-82
2022/02/23 07:07:49;;;;;;;11.10;4.85;;;;;;;2.86;100.00;100140.66;5114354;27;20059;-79
2022/02/23 07:10:23;;;;;;;7.50;2.83;;;;;;;2.82;100.00;100140.91;5111023;28;20052;-79
2022/02/23 07:12:52;;;;;;;6.35;2.70;;;;;;;2.93;100.00;100145.47;5111880;28;20040;-80
2022/02/23 07:15:19;;;;;;;10.55;2.20;;;;;;;2.96;100.00;100144.41;5116437;27;20188;-79
2022/02/23 07:17:46;;;;;;;10.60;2.58;;;;;;;2.96;100.00;100136.34;5112090;28;20036;-79
2022/02/23 07:20:12;;;;;;;10.32;3.00;;;;;;;3.16;100.00;100151.00;5106400;27;20081;-79
2022/02/23 07:22:39;;;;;;;5.93;2.53;;;;;;;3.11;100.00;100150.50;5105471;28;20050;-79
2022/02/23 07:25:09;;;;;;;8.48;2.92;;;;;;;3.32;100.00;100161.47;5114836;27;20127;-79
2022/02/23 07:27:36;;;;;;;7.78;2.67;;;;;;;3.40;100.00;100161.75;5107519;28;20054;-79
2022/02/23 07:30:06;;;;;;;5.00;2.08;;;;;;;3.50;100.00;100148.50;5112387;28;20478;-80
2022/02/23 07:32:33;;;;;;;;;;;;;;;3.65;100.00;100154.56;5112212;28;20118;-81
2022/02/23 07:35:02;;;;;;;4.03;2.50;;;;;;;3.73;100.00;100157.50;5113407;28;20371;-81
2022/02/23 07:37:28;;;;;;;9.57;2.80;;;;;;;3.92;100.00;100156.97;5112264;28;20043;-81
2022/02/23 07:39:57;;;;;;;8.77;2.65;;;;;;;4.02;100.00;100159.78;5113294;28;20047;-81
2022/02/23 07:42:24;;;;;;;8.00;2.70;;;;;;;4.04;100.00;100155.16;5123756;27;20052;-81
2022/02/23 07:44:51;;;;;;;9.07;2.80;;;;;;;4.27;100.00;100153.34;5120066;27;20047;-81
2022/02/23 07:47:19;;;;;;;10.75;3.03;;;;;;;4.31;100.00;100168.31;5110111;28;20044;-81
2022/02/23 07:49:49;;;;;;;6.53;3.05;;;;;;;4.25;100.00;100184.94;5110831;28;20063;-82
2022/02/23 07:52:15;;;;;;;;;;;;;;;4.31;100.00;100183.59;5112252;28;20048;-81
2022/02/23 07:54:42;;;;;;;9.93;3.85;;;;;;;4.20;100.00;100188.00;5111031;28;20445;-81
2022/02/23 07:57:08;;;;;;;12.35;4.65;;;;;;;4.09;100.00;100174.50;5112414;28;20060;-81
2022/02/23 07:59:35;;;;;;;9.13;4.72;;;;;;;4.15;100.00;100174.00;5111931;28;20055;-81
2022/02/23 08:02:01;;;;;;;13.90;4.55;;;;;;;4.29;100.00;100186.41;5112414;28;20054;-81
2022/02/23 08:04:29;;;;;;;14.27;4.28;;;;;;;4.40;100.00;100186.41;5113543;28;20051;-81
2022/02/23 08:06:56;;;;;;;7.80;3.40;;;;;;;4.47;100.00;100192.19;5111917;28;20093;-81
2022/02/23 08:09:23;;;;;;;9.25;4.22;;;;;;;4.46;100.00;100176.13;5111713;28;20399;-81
2022/02/23 08:11:49;;;;;;;15.85;3.35;;;;;;;4.57;100.00;100173.47;5111766;28;20051;-81
2022/02/23 08:14:16;;;;;;;10.55;3.38;;;;;;;4.55;100.00;100178.13;5111544;28;20058;-81
2022/02/23 08:19:33;;;;;;;15.13;3.15;;;;;;;4.67;100.00;100179.00;5110891;28;20050;-81
2022/02/23 08:22:03;;;;;;;10.35;3.58;;;;;;;4.74;100.00;100180.19;5111559;28;20578;-81
2022/02/23 08:24:30;;;;;;;13.13;3.25;;;;;;;4.82;100.00;100171.50;5111450;28;20130;-82
2022/02/23 08:26:57;;;;;;;12.77;3.38;;;;;;;4.88;100.00;100171.88;5112455;28;20498;-81
2022/02/23 08:29:24;;;;;;;12.40;4.28;;;;;;;4.91;100.00;100177.00;5115624;27;20047;-81
2022/02/23 08:31:51;;;;;;;15.10;3.60;;;;;;;4.89;100.00;100172.72;5115745;28;20058;-81
2022/02/23 08:34:18;;;;;;;19.60;4.68;;;;;;;4.94;100.00;100174.06;5114709;28;20419;-81
2022/02/23 08:36:46;;;;;;;14.95;3.55;;;;;;;4.95;100.00;100161.44;5114680;28;20088;-82
2022/02/23 08:39:15;;;;;;;16.60;3.45;;;;;;;5.17;100.00;100182.13;5104246;28;20044;-81
2022/02/23 08:41:41;;;;;;;12.10;4.05;;;;;;;5.13;100.00;100178.84;5115920;28;20066;-81
2022/02/23 08:44:08;;;;;;;14.32;4.50;;;;;;;5.24;100.00;100172.56;5114728;28;20605;-81
2022/02/23 08:46:35;;;;;;;19.48;3.72;;;;;;;5.25;100.00;100176.94;5113317;28;20051;-81
2022/02/23 08:49:02;;;;;;;13.50;3.58;;;;;;;5.30;100.00;100182.84;5113402;28;20051;-81
2022/02/23 08:51:31;;;;;;;10.20;3.55;;;;;;;5.37;100.00;100179.63;5114290;28;20406;-81
2022/02/23 08:53:59;;;;;;;11.13;3.60;;;;;;;5.44;100.00;100189.78;5112756;28;20056;-81
2022/02/23 08:56:25;;;;;;;10.43;2.72;;;;;;;5.46;100.00;100184.25;5115168;28;20039;-81
2022/02/23 08:58:52;;;;;;;15.93;3.72;;;;;;;5.60;100.00;100189.38;5115286;28;20039;-81
2022/02/23 09:01:18;;;;;;;9.77;3.63;;;;;;;5.63;100.00;100189.13;5106515;28;20051;-82
2022/02/23 09:03:45;;;;;;;9.10;2.58;;;;;;;5.63;100.00;100183.72;5113996;28;20058;-81
2022/02/23 09:06:12;;;;;;;11.63;3.03;;;;;;;5.64;100.00;100185.41;5114142;28;20055;-82
2022/02/23 09:08:39;;;;;;;10.93;3.78;;;;;;;5.70;100.00;100186.75;5114099;28;20040;-82
2022/02/23 09:11:07;;;;;;;8.05;2.38;;;;;;;5.66;100.00;100185.28;5113428;28;20084;-81
2022/02/23 09:13:33;;;;;;;9.00;4.13;;;;;;;5.74;100.00;100193.63;5112851;28;20067;-82
2022/02/23 09:16:00;;;;;;;8.27;2.67;;;;;;;5.68;100.00;100169.84;5113381;28;20047;-81
2022/02/23 09:18:26;;;;;;;7.43;2.65;;;;;;;5.78;100.00;100184.28;5108405;28;20075;-82
2022/02/23 09:20:53;;;;;;;10.38;2.72;;;;;;;5.92;100.00;100184.97;5104481;28;20063;-82
2022/02/23 09:23:21;;;;;;;5.85;2.35;;;;;;;5.99;100.00;100184.34;5112087;28;20503;-82
2022/02/23 09:25:47;;;;;;;9.02;2.70;;;;;;;5.99;100.00;100180.78;5106090;28;20130;-81
2022/02/23 09:28:15;;;;;;;22.20;10.52;;;;;;;6.03;100.00;100185.78;5114356;28;20054;-81
2022/02/23 09:30:41;;;;;;;20.98;9.15;;;;;;;6.08;100.00;100184.53;5113981;27;20043;-81
2022/02/23 09:33:08;;;;;;;14.32;5.72;;;;;;;6.15;100.00;100178.47;5113399;28;20052;-82
2022/02/23 09:35:35;;;;;;;10.85;2.63;;;;;;;6.24;100.00;100184.09;5105248;28;20050;-82
2022/02/23 09:38:01;;;;;;;7.97;2.42;;;;;;;6.31;100.00;100179.88;5109904;28;20049;-81
2022/02/23 09:40:28;;;;;;;7.20;2.70;;;;;;;6.37;100.00;100191.00;5117911;27;20050;-81
2022/02/23 09:42:55;;;;;;;12.10;2.38;;;;;;;6.45;100.00;100187.63;5114088;28;20047;-81
2022/02/23 09:45:23;;;;;;;8.50;2.50;;;;;;;6.55;100.00;100185.00;5113529;28;20047;-81
2022/02/23 09:47:50;;;;;;;9.38;2.25;;;;;;;6.55;100.00;100185.84;5113528;27;20047;-81
2022/02/23 09:50:20;;;;;;;9.98;2.95;;;;;;;6.61;100.00;100180.88;5112954;28;20427;-81
2022/02/23 09:52:47;;;;;;;;;;;;;;;6.78;100.00;100191.06;5114695;28;20130;-81
2022/02/23 09:55:13;;;;;;;10.30;2.10;;;;;;;6.86;100.00;100180.41;5113627;28;19924;-81
2022/02/23 09:57:40;;;;;;;7.28;1.88;;;;;;;6.75;100.00;100177.81;5113239;28;20089;-81
2022/02/23 10:00:08;;;;;;;9.45;1.90;;;;;;;6.82;100.00;100186.22;5114172;28;20051;-81
2022/02/23 10:02:36;;;;;;;4.35;1.60;;;;;;;6.78;100.00;100182.97;5113612;28;20055;-81
2022/02/23 10:05:03;;;;;;;9.70;1.67;;;;;;;6.80;100.00;100183.66;5113540;28;20044;-81
2022/02/23 10:07:32;;;;;;;3.28;1.65;;;;;;;6.86;100.00;100187.69;5113696;28;20058;-81
2022/02/23 10:10:03;;;;;;;10.88;1.85;;;;;;;6.79;100.00;100165.75;5113632;28;20096;-81
2022/02/23 10:12:29;;;;;;;6.72;1.90;;;;;;;6.96;100.00;100176.94;5113680;28;20383;-82
2022/02/23 10:15:11;;;;;;;9.13;2.10;;;;;;;7.03;100.00;100187.06;5107630;28;20536;-82
2022/02/23 10:17:41;;;;;;;13.02;2.35;;;;;;;6.97;100.00;100184.91;5112731;28;20075;-82
2022/02/23 10:20:21;;;;;;;5.40;2.10;;;;;;;6.84;100.00;100193.22;5113800;28;20544;-82
2022/02/23 10:22:49;;;;;;;9.52;2.50;;;;;;;6.75;100.00;100185.94;5113189;27;20047;-82
2022/02/23 10:25:21;;;;;;;7.63;2.22;;;;;;;6.75;100.00;100171.56;5110942;28;20155;-82
2022/02/23 10:27:48;;;;;;;15.85;3.38;;;;;;;6.92;100.00;100179.03;5112067;28;20048;-82
2022/02/23 10:30:27;;;;;;;12.15;1.85;;;;;;;6.97;100.00;100162.38;5113535;28;20054;-82
2022/02/23 10:32:57;;;;;;;8.00;2.20;;;;;;;7.06;100.00;100169.69;5111824;28;20101;-82
2022/02/23 10:35:27;;;;;;;8.95;2.05;;;;;;;7.29;100.00;100175.72;5113013;28;20051;-82
2022/02/23 10:37:53;;;;;;;9.77;1.90;;;;;;;7.54;100.00;100168.06;5112895;28;20052;-82
2022/02/23 10:40:20;;;;;;;10.13;1.90;;;;;;;7.64;100.00;100174.34;5113578;28;20047;-81
2022/02/23 10:42:46;;;;;;;6.03;1.83;;;;;;;7.65;100.00;100161.66;5112715;28;20051;-82
2022/02/23 10:45:17;;;;;;;5.95;1.60;;;;;;;7.73;100.00;100162.66;5112170;28;20048;-82
2022/02/23 10:47:44;;;;;;;8.15;1.58;;;;;;;7.68;96.77;100158.66;5100512;28;20049;-82
2022/02/23 10:50:14;;;;;;;4.78;1.60;;;;;;;7.72;99.72;100163.69;5111994;28;20036;-82
2022/02/23 10:52:43;;;;;;;10.65;2.83;;;;;;;7.85;97.56;100157.97;5112863;28;20418;-82
2022/02/23 10:55:19;;;;;;;7.93;1.52;;;;;;;8.10;95.50;100159.25;5112888;28;20043;-82
2022/02/23 10:57:47;;;;;;;7.20;1.48;;;;;;;8.14;96.25;100173.34;5112716;28;20527;-81
2022/02/23 11:00:19;;;;;;;4.53;1.02;;;;;;;8.18;94.13;100161.22;5112830;28;20054;-82
2022/02/23 11:02:46;;;;;;;3.72;1.20;;;;;;;8.27;94.33;100149.50;5112579;28;20055;-81
2022/02/23 11:05:14;;;;;;;10.38;1.60;;;;;;;8.30;94.38;100135.66;5112119;28;20055;-82
2022/02/23 11:07:44;;;;;;;9.52;1.58;;;;;;;8.44;95.76;100147.09;5100790;28;20078;-82
2022/02/23 11:10:13;;;;;;;11.68;1.38;;;;;;;8.52;93.85;100144.50;5112642;28;20082;-82
2022/02/23 11:12:43;;;;;;;8.85;1.75;;;;;;;8.56;89.32;100150.47;5112772;28;20113;-82
2022/02/23 11:15:11;;;;;;;5.28;1.27;;;;;;;8.52;88.78;100149.06;5117997;27;20071;-80
2022/02/23 11:17:39;;;;;;;6.70;1.45;;;;;;;8.50;86.71;100138.34;5112595;27;20062;-82
2022/02/23 11:20:07;;;;;;;5.97;1.67;;;;;;;8.60;88.51;100139.19;5112228;28;20048;-82
2022/02/23 11:22:36;;;;;;;5.40;1.50;;;;;;;8.66;87.00;100135.03;5111251;28;20048;-81
2022/02/23 11:25:03;;;;;;;10.70;1.67;;;;;;;8.78;92.25;100128.41;5103015;28;20040;-82
2022/02/23 11:27:34;;;;;;;6.15;1.60;;;;;;;8.83;89.37;100133.38;5106089;28;20285;-82
2022/02/23 11:30:05;;;;;;;8.48;1.63;;;;;;;8.70;85.00;100125.56;5109071;28;20515;-82
2022/02/23 11:32:41;;;;;;;9.52;1.98;;;;;;;8.66;85.37;100125.03;5108452;27;20051;-82
2022/02/23 11:35:08;;;;;;;7.97;1.58;;;;;;;8.69;88.22;100115.75;5108726;28;20483;-82
2022/02/23 11:37:36;;;;;;;8.32;1.75;;;;;;;8.67;89.01;100109.59;5109720;28;20170;-82
2022/02/23 11:40:03;;;;;;;9.05;1.60;;;;;;;8.82;86.20;100108.13;5104043;28;20059;-82
2022/02/23 11:42:34;;;;;;;6.28;1.35;;;;;;;8.93;87.88;100100.81;5109937;28;20051;-82
2022/02/23 11:45:09;;;;;;;5.07;1.60;;;;;;;8.95;83.00;100096.91;5100437;28;20051;-82
2022/02/23 11:47:45;;;;;;;4.65;1.30;;;;;;;9.02;86.79;100089.03;5109397;28;20425;-82
2022/02/23 11:50:13;;;;;;;5.55;2.00;;;;;;;9.15;83.68;100092.25;5110184;28;20487;-82
2022/02/23 11:52:45;;;;;;;6.20;1.65;;;;;;;9.19;84.30;100090.06;5110142;28;20129;-82
2022/02/23 11:55:14;;;;;;;6.47;1.35;;;;;;;9.15;84.60;100077.81;5109436;28;20052;-82
2022/02/23 11:57:47;;;;;;;2.47;1.50;;;;;;;9.21;84.69;100094.34;5107713;28;20051;-81
2022/02/23 12:00:15;;;;;;;4.90;1.52;;;;;;;9.32;82.79;100076.97;5112712;28;20395;-81
2022/02/23 12:02:43;;;;;;;9.23;2.17;;;;;;;9.34;82.84;100068.69;5113995;28;20039;-81
2022/02/23 12:05:31;;;;;;;7.05;2.22;;;;;;;9.29;78.90;100065.56;5112889;28;20047;-82
2022/02/23 12:07:59;;;;;;;6.35;1.20;;;;;;;9.56;82.03;100078.22;5113361;28;20120;-82
2022/02/23 12:10:30;;;;;;;9.00;1.23;;;;;;;9.46;81.32;100085.59;5114034;27;20068;-81
2022/02/23 12:12:58;;;;;;;7.68;2.20;;;;;;;9.25;84.33;100064.19;5107091;27;20043;-81
2022/02/23 12:15:27;;;;;;;5.95;1.73;;;;;;;9.19;83.37;100073.78;5113054;28;20086;-81
2022/02/23 12:17:59;;;;;;;9.52;1.98;;;;;;;9.24;79.30;100059.75;5111291;28;20407;-81
2022/02/23 12:20:48;;;;;;;10.23;1.73;;;;;;;9.53;78.53;100065.81;5113887;28;20035;-82
2022/02/23 12:23:39;;;;;;;6.93;1.63;;;;;;;9.47;74.93;100062.84;5113552;28;20055;-80
2022/02/23 12:26:22;;;;;;;7.32;2.00;;;;;;;9.84;73.98;100051.78;5113223;28;20047;-82
2022/02/23 12:28:51;;;;;;;8.00;1.58;;;;;;;9.96;74.58;100048.81;5110176;28;20048;-81
2022/02/23 12:31:19;;;;;;;7.35;1.45;;;;;;;10.23;73.86;100047.81;5113166;28;20510;-81
2022/02/23 12:33:49;;;;;;;5.05;1.55;;;;;;;10.37;78.24;100043.66;5108498;28;20051;-81
2022/02/23 12:36:25;;;;;;;6.25;1.50;;;;;;;10.46;77.05;100037.25;5110675;28;20416;-81
2022/02/23 12:38:57;;;;;;;7.00;1.73;;;;;;;10.30;73.33;100029.84;5113615;28;20407;-81
2022/02/23 12:41:25;;;;;;;4.45;1.95;;;;;;;10.52;75.60;100030.31;5113239;27;20478;-81
2022/02/23 12:43:58;;;;;;;7.28;2.15;;;;;;;10.57;72.24;100019.81;5112813;28;20051;-81
2022/02/23 12:46:25;;;;;;;14.82;2.70;;;;;;;10.59;70.72;100018.59;5111583;28;20039;-81
2022/02/23 12:48:56;;;;;;;9.00;1.80;;;;;;;10.85;70.00;100016.84;5113381;27;20100;-81
2022/02/23 12:51:23;;;;;;;10.68;1.73;;;;;;;10.97;66.21;100016.38;5111722;28;20079;-83
2022/02/23 12:53:54;;;;;;;6.15;1.75;;;;;;;10.89;68.42;100015.50;5106713;28;20040;-82
2022/02/23 12:56:22;;;;;;;5.28;1.65;;;;;;;10.64;67.40;100020.84;5111951;28;20074;-83
2022/02/23 12:58:52;;;;;;;8.35;2.03;;;;;;;10.40;67.94;100008.88;5109818;28;20039;-82
2022/02/23 13:01:20;;;;;;;7.45;1.80;;;;;;;10.43;66.95;99991.34;5107892;28;20074;-82
2022/02/23 13:03:47;;;;;;;7.18;1.67;;;;;;;10.59;66.68;99983.25;5111163;28;20484;-81